createdAt,value
2018-02-17T00:00:59.250Z,2.18
2018-02-17T00:03:26.639Z,1.95
2018-02-17T00:05:54.035Z,2.01
2018-02-17T00:08:21.419Z,1.97
2018-02-17T00:10:48.819Z,1.86
2018-02-17T00:13:16.208Z,1.78
2018-02-17T00:15:43.647Z,1.83
2018-02-17T00:18:11.100Z,1.86
2018-02-17T00:20:38.498Z,1.85
2018-02-17T00:23:05.923Z,1.92
2018-02-17T00:25:33.315Z,1.88
2018-02-17T00:28:00.706Z,1.91
2018-02-17T00:30:28.103Z,1.90
2018-02-17T00:32:55.498Z,1.92
2018-02-17T00:35:22.890Z,1.93
2018-02-17T00:37:50.322Z,1.91
2018-02-17T00:40:17.714Z,1.92
2018-02-17T00:42:45.115Z,1.93
2018-02-17T00:45:12.514Z,1.91
2018-02-17T00:47:39.988Z,1.87
2018-02-17T00:50:07.379Z,1.86
2018-02-17T00:52:34.767Z,1.87
2018-02-17T00:55:02.179Z,1.83
2018-02-17T00:57:30.423Z,1.76
2018-02-17T00:59:57.887Z,1.79
2018-02-17T01:02:25.346Z,1.77
2018-02-17T01:04:52.742Z,1.72
2018-02-17T01:07:20.145Z,1.65
2018-02-17T01:09:47.569Z,1.63
2018-02-17T01:12:15.065Z,1.66
2018-02-17T01:14:42.454Z,1.60
2018-02-17T01:17:09.855Z,1.60
2018-02-17T01:19:37.270Z,1.56
2018-02-17T01:22:04.691Z,1.51
2018-02-17T01:24:32.142Z,1.33
2018-02-17T01:26:59.544Z,1.29
2018-02-17T01:29:26.962Z,1.19
2018-02-17T01:31:54.359Z,1.20
2018-02-17T01:34:21.752Z,1.28
2018-02-17T01:36:49.142Z,1.32
2018-02-17T01:39:16.582Z,1.36
2018-02-17T01:41:44.072Z,1.37
2018-02-17T01:44:11.448Z,1.36
2018-02-17T01:46:38.950Z,1.30
2018-02-17T01:49:06.355Z,1.29
2018-02-17T01:51:33.767Z,1.32
2018-02-17T01:54:01.168Z,1.24
2018-02-17T01:56:28.575Z,1.22
2018-02-17T01:58:55.963Z,1.23
2018-02-17T02:01:23.362Z,1.05
2018-02-17T02:03:50.745Z,1.11
2018-02-17T02:06:18.135Z,1.14
2018-02-17T02:08:45.527Z,1.17
2018-02-17T02:11:12.919Z,1.16
2018-02-17T02:13:40.317Z,0.91
2018-02-17T02:16:07.812Z,0.85
2018-02-17T02:18:35.206Z,0.68
2018-02-17T02:21:02.734Z,0.74
2018-02-17T02:23:30.122Z,0.79
2018-02-17T02:25:57.518Z,0.84
2018-02-17T02:28:24.999Z,0.88
2018-02-17T02:30:52.395Z,0.87
2018-02-17T02:33:19.784Z,0.90
2018-02-17T02:35:47.260Z,0.91
2018-02-17T02:38:14.642Z,0.92
2018-02-17T02:40:42.067Z,0.94
2018-02-17T02:43:09.462Z,0.91
2018-02-17T02:45:36.851Z,0.90
2018-02-17T02:48:04.243Z,0.84
2018-02-17T02:50:31.644Z,0.80
2018-02-17T02:52:59.046Z,0.84
2018-02-17T02:55:26.419Z,0.84
2018-02-17T02:57:53.850Z,0.62
2018-02-17T03:00:21.310Z,0.73
2018-02-17T03:02:48.737Z,0.78
2018-02-17T03:05:16.115Z,0.79
2018-02-17T03:07:43.503Z,0.75
2018-02-17T03:10:10.932Z,0.68
2018-02-17T03:12:38.328Z,0.50
2018-02-17T03:15:05.711Z,0.60
2018-02-17T03:17:33.142Z,0.61
2018-02-17T03:20:00.496Z,0.56
2018-02-17T03:22:27.890Z,0.59
2018-02-17T03:24:55.278Z,0.68
2018-02-17T03:27:22.676Z,0.72
2018-02-17T03:29:50.062Z,0.74
2018-02-17T03:32:17.528Z,0.76
2018-02-17T03:34:44.982Z,0.78
2018-02-17T03:37:12.383Z,0.77
2018-02-17T03:39:39.774Z,0.74
2018-02-17T03:42:07.174Z,0.74
2018-02-17T03:44:34.570Z,0.76
2018-02-17T03:47:01.971Z,0.75
2018-02-17T03:49:29.355Z,0.68
2018-02-17T03:51:56.746Z,0.71
2018-02-17T03:54:24.154Z,0.61
2018-02-17T03:56:51.546Z,0.62
2018-02-17T03:59:19.346Z,0.59
2018-02-17T04:01:46.747Z,0.62
2018-02-17T04:04:14.131Z,0.59
2018-02-17T04:06:41.595Z,0.58
2018-02-17T04:09:09.062Z,0.48
2018-02-17T04:11:36.458Z,0.54
2018-02-17T04:14:03.859Z,0.57
2018-02-17T04:16:31.259Z,0.55
2018-02-17T04:18:58.665Z,0.59
2018-02-17T04:21:26.053Z,0.58
2018-02-17T04:23:53.447Z,0.64
2018-02-17T04:26:20.845Z,0.71
2018-02-17T04:28:48.223Z,0.75
2018-02-17T04:31:15.638Z,0.69
2018-02-17T04:33:43.030Z,0.72
2018-02-17T04:36:10.421Z,0.77
2018-02-17T04:38:37.815Z,0.75
2018-02-17T04:41:08.162Z,0.74
2018-02-17T04:43:40.071Z,0.73
2018-02-17T04:49:23.122Z,0.80
2018-02-17T04:51:54.867Z,0.66
2018-02-17T04:54:41.122Z,0.55
2018-02-17T05:00:11.239Z,0.74
2018-02-17T05:02:40.558Z,0.75
2018-02-17T05:08:14.006Z,0.87
2018-02-17T05:10:41.390Z,0.92
2018-02-17T05:13:08.795Z,0.94
2018-02-17T05:15:46.080Z,0.96
2018-02-17T05:18:13.466Z,1.05
2018-02-17T05:20:40.859Z,1.05
2018-02-17T05:26:23.703Z,1.23
2018-02-17T05:28:53.585Z,1.31
2018-02-17T05:31:30.866Z,1.38
2018-02-17T05:34:03.965Z,1.46
2018-02-17T05:36:32.118Z,1.49
2018-02-17T05:39:01.906Z,1.47
2018-02-17T05:41:39.191Z,1.56
2018-02-17T05:44:07.117Z,1.55
2018-02-17T05:46:40.010Z,1.59
2018-02-17T05:49:09.749Z,1.75
2018-02-17T05:51:37.103Z,1.78
2018-02-17T05:54:04.523Z,1.89
2018-02-17T05:56:31.924Z,2.00
2018-02-17T05:59:00.215Z,2.03
2018-02-17T06:01:27.603Z,1.99
2018-02-17T06:03:55.005Z,2.00
2018-02-17T06:06:22.487Z,2.12
2018-02-17T06:08:49.874Z,2.11
2018-02-17T06:11:17.269Z,2.12
2018-02-17T06:13:44.666Z,2.23
2018-02-17T06:16:12.048Z,2.15
2018-02-17T06:18:39.443Z,2.16
2018-02-17T06:21:06.831Z,2.09
2018-02-17T06:23:34.217Z,2.19
2018-02-17T06:26:01.602Z,2.32
2018-02-17T06:28:29.007Z,2.33
2018-02-17T06:30:56.402Z,2.38
2018-02-17T06:33:23.790Z,2.37
2018-02-17T06:35:51.191Z,2.35
2018-02-17T06:38:18.570Z,2.43
2018-02-17T06:40:45.967Z,2.27
2018-02-17T06:43:13.354Z,2.22
2018-02-17T06:45:40.746Z,2.06
2018-02-17T06:48:08.138Z,1.90
2018-02-17T06:50:35.531Z,1.80
2018-02-17T06:53:02.923Z,1.84
2018-02-17T06:55:30.320Z,1.92
2018-02-17T06:57:57.706Z,1.88
2018-02-17T07:00:25.103Z,2.03
2018-02-17T07:02:52.496Z,2.05
2018-02-17T07:05:19.889Z,2.12
2018-02-17T07:07:47.309Z,1.99
2018-02-17T07:10:14.706Z,2.11
2018-02-17T07:12:42.087Z,2.03
2018-02-17T07:15:09.588Z,1.90
2018-02-17T07:17:36.981Z,1.91
2018-02-17T07:20:04.379Z,2.16
2018-02-17T07:22:31.762Z,2.34
2018-02-17T07:24:59.158Z,2.38
2018-02-17T07:27:26.579Z,2.49
2018-02-17T07:29:53.954Z,2.63
2018-02-17T07:32:21.364Z,2.51
2018-02-17T07:34:48.754Z,2.64
2018-02-17T07:37:16.139Z,2.36
2018-02-17T07:39:43.623Z,2.41
2018-02-17T07:42:11.007Z,2.65
2018-02-17T07:44:38.402Z,2.47
2018-02-17T07:47:05.786Z,2.49
2018-02-17T07:49:33.244Z,2.51
2018-02-17T07:52:00.631Z,2.59
2018-02-17T07:54:28.019Z,2.44
2018-02-17T07:56:55.510Z,2.58
2018-02-17T07:59:22.963Z,2.71
2018-02-17T08:01:50.431Z,2.91
2018-02-17T08:04:17.879Z,3.04
2018-02-17T08:06:45.279Z,2.79
2018-02-17T08:09:12.674Z,3.00
2018-02-17T08:11:41.370Z,3.09
2018-02-17T08:14:08.762Z,3.09
2018-02-17T08:16:36.183Z,3.34
2018-02-17T08:19:03.639Z,3.45
2018-02-17T08:21:31.034Z,3.76
2018-02-17T08:23:58.451Z,4.28
2018-02-17T08:26:25.903Z,4.97
2018-02-17T08:28:53.358Z,5.76
2018-02-17T08:31:20.755Z,6.21
2018-02-17T08:33:48.144Z,6.75
2018-02-17T08:36:15.539Z,6.44
2018-02-17T08:38:42.927Z,6.39
2018-02-17T08:41:10.338Z,6.37
2018-02-17T08:43:37.735Z,6.25
2018-02-17T08:46:05.177Z,5.51
2018-02-17T08:48:32.573Z,5.24
2018-02-17T08:50:59.959Z,4.89
2018-02-17T08:53:27.414Z,4.20
2018-02-17T08:55:54.814Z,3.89
2018-02-17T08:58:22.199Z,3.75
2018-02-17T09:00:49.674Z,3.68
2018-02-17T09:03:17.068Z,3.64
2018-02-17T09:05:44.607Z,3.63
2018-02-17T09:08:11.987Z,3.84
2018-02-17T09:10:47.150Z,3.76
2018-02-17T09:13:14.537Z,3.69
2018-02-17T09:15:42.096Z,3.75
2018-02-17T09:18:09.483Z,4.09
2018-02-17T09:20:36.906Z,4.42
2018-02-17T09:23:04.303Z,4.33
2018-02-17T09:25:31.699Z,4.20
2018-02-17T09:27:59.242Z,4.18
2018-02-17T09:30:26.654Z,4.41
2018-02-17T09:32:54.052Z,4.77
2018-02-17T09:35:21.442Z,5.10
2018-02-17T09:37:48.831Z,5.27
2018-02-17T09:40:16.255Z,5.49
2018-02-17T09:42:43.707Z,5.79
2018-02-17T09:45:11.110Z,5.97
2018-02-17T09:47:38.513Z,6.18
2018-02-17T09:50:05.914Z,6.16
2018-02-17T09:52:33.307Z,6.28
2018-02-17T09:55:01.393Z,6.67
2018-02-17T09:57:28.786Z,7.02
2018-02-17T09:59:56.183Z,7.69
2018-02-17T10:02:23.575Z,8.11
2018-02-17T10:04:50.976Z,7.90
2018-02-17T10:07:18.909Z,8.13
2018-02-17T10:09:46.307Z,8.03
2018-02-17T10:12:13.709Z,7.79
2018-02-17T10:14:41.152Z,7.29
2018-02-17T10:17:08.542Z,7.15
2018-02-17T10:19:35.943Z,7.42
2018-02-17T10:22:03.416Z,7.36
2018-02-17T10:24:30.803Z,7.32
2018-02-17T10:26:58.201Z,7.37
2018-02-17T10:29:25.684Z,8.08
2018-02-17T10:31:53.093Z,8.47
2018-02-17T10:34:20.498Z,8.88
2018-02-17T10:36:47.891Z,9.29
2018-02-17T10:39:15.303Z,9.42
2018-02-17T10:41:42.762Z,9.46
2018-02-17T10:44:10.142Z,9.49
2018-02-17T10:46:37.543Z,9.28
2018-02-17T10:49:05.027Z,9.08
2018-02-17T10:51:32.511Z,9.16
2018-02-17T10:53:59.894Z,9.56
2018-02-17T10:56:27.397Z,9.04
2018-02-17T10:58:54.859Z,9.12
2018-02-17T11:01:22.262Z,9.01
2018-02-17T11:03:49.651Z,9.04
2018-02-17T11:06:17.085Z,8.99
2018-02-17T11:08:44.476Z,9.16
2018-02-17T11:11:11.879Z,9.41
2018-02-17T11:13:39.267Z,9.16
2018-02-17T11:16:06.707Z,9.23
2018-02-17T11:18:34.114Z,9.10
2018-02-17T11:21:01.496Z,8.52
2018-02-17T11:23:28.911Z,8.19
2018-02-17T11:25:56.303Z,8.09
2018-02-17T11:28:23.714Z,7.97
2018-02-17T11:30:51.186Z,7.92
2018-02-17T11:33:18.567Z,7.49
2018-02-17T11:35:46.045Z,7.29
2018-02-17T11:38:13.531Z,7.16
2018-02-17T11:40:41.007Z,7.32
2018-02-17T11:43:08.395Z,7.49
2018-02-17T11:45:35.807Z,7.55
2018-02-17T11:48:03.262Z,7.31
2018-02-17T11:50:30.744Z,7.41
2018-02-17T11:52:58.127Z,7.56
2018-02-17T11:55:25.519Z,7.39
2018-02-17T11:57:52.915Z,7.43
2018-02-17T12:00:20.308Z,7.67
2018-02-17T12:02:47.714Z,7.79
2018-02-17T12:05:15.111Z,7.65
2018-02-17T12:07:42.507Z,7.72
2018-02-17T12:10:09.902Z,7.91
2018-02-17T12:12:37.291Z,7.82
2018-02-17T12:15:04.735Z,7.59
2018-02-17T12:17:32.142Z,7.76
2018-02-17T12:19:59.594Z,7.92
2018-02-17T12:22:26.992Z,8.00
2018-02-17T12:24:54.405Z,7.97
2018-02-17T12:27:21.806Z,7.75
2018-02-17T12:29:49.217Z,7.88
2018-02-17T12:32:16.675Z,7.75
2018-02-17T12:34:44.061Z,8.21
2018-02-17T12:37:11.461Z,8.83
2018-02-17T12:39:38.838Z,9.37
2018-02-17T12:42:06.235Z,9.40
2018-02-17T12:44:33.653Z,9.06
2018-02-17T12:47:01.051Z,8.87
2018-02-17T12:49:28.467Z,8.63
2018-02-17T12:51:55.918Z,8.48
2018-02-17T12:54:23.299Z,8.45
2018-02-17T12:56:50.735Z,8.45
2018-02-17T12:59:18.123Z,8.41
2018-02-17T13:01:45.560Z,8.28
2018-02-17T13:04:12.932Z,8.45
2018-02-17T13:06:40.354Z,8.53
2018-02-17T13:09:07.745Z,8.73
2018-02-17T13:11:35.164Z,9.11
2018-02-17T13:14:02.552Z,9.22
2018-02-17T13:16:29.943Z,9.25
2018-02-17T13:18:57.347Z,9.31
2018-02-17T13:21:24.728Z,9.16
2018-02-17T13:23:52.131Z,9.47
2018-02-17T13:26:19.523Z,9.73
2018-02-17T13:28:46.964Z,9.99
2018-02-17T13:31:14.383Z,10.25
2018-02-17T13:33:41.867Z,10.55
2018-02-17T13:36:09.256Z,10.86
2018-02-17T13:38:36.679Z,11.10
2018-02-17T13:41:04.066Z,10.84
2018-02-17T13:43:31.462Z,10.84
2018-02-17T13:45:58.852Z,11.03
2018-02-17T13:48:26.248Z,11.28
2018-02-17T13:50:53.636Z,11.41
2018-02-17T13:53:21.123Z,11.34
2018-02-17T13:55:48.571Z,11.07
2018-02-17T13:58:16.027Z,10.89
2018-02-17T14:00:43.418Z,10.75
2018-02-17T14:03:10.806Z,10.55
2018-02-17T14:05:38.203Z,10.29
2018-02-17T14:08:05.587Z,10.30
2018-02-17T14:10:32.986Z,10.19
2018-02-17T14:13:00.474Z,10.02
2018-02-17T14:15:27.867Z,9.79
2018-02-17T14:17:55.272Z,9.82
2018-02-17T14:20:22.742Z,9.74
2018-02-17T14:22:50.225Z,9.86
2018-02-17T14:25:17.646Z,9.93
2018-02-17T14:27:45.038Z,10.00
2018-02-17T14:30:12.439Z,10.09
2018-02-17T14:32:39.834Z,10.10
2018-02-17T14:35:07.226Z,10.15
2018-02-17T14:37:34.723Z,10.12
2018-02-17T14:40:02.192Z,10.28
2018-02-17T14:42:29.575Z,10.46
2018-02-17T14:44:57.009Z,10.58
2018-02-17T14:47:24.391Z,10.76
2018-02-17T14:49:51.806Z,10.88
2018-02-17T14:52:19.191Z,10.91
2018-02-17T14:54:46.581Z,11.04
2018-02-17T14:57:13.980Z,11.08
2018-02-17T14:59:41.379Z,11.00
2018-02-17T15:02:08.786Z,10.91
2018-02-17T15:04:36.243Z,11.03
2018-02-17T15:07:03.647Z,11.09
2018-02-17T15:09:31.036Z,11.17
2018-02-17T15:11:58.430Z,11.22
2018-02-17T15:14:25.829Z,10.92
2018-02-17T15:16:53.230Z,10.74
2018-02-17T15:19:20.626Z,10.53
2018-02-17T15:21:48.135Z,10.49
2018-02-17T15:24:15.586Z,10.30
2018-02-17T15:26:43.051Z,10.07
2018-02-17T15:29:10.508Z,9.72
2018-02-17T15:31:37.907Z,9.50
2018-02-17T15:34:05.302Z,9.27
2018-02-17T15:36:32.771Z,9.29
2018-02-17T15:39:00.170Z,9.18
2018-02-17T15:41:27.571Z,9.10
2018-02-17T15:43:55.086Z,8.98
2018-02-17T15:46:22.454Z,9.01
2018-02-17T15:48:49.834Z,9.19
2018-02-17T15:51:17.318Z,9.18
2018-02-17T15:53:44.703Z,9.27
2018-02-17T15:56:12.114Z,9.34
2018-02-17T15:58:39.499Z,9.37
2018-02-17T16:01:06.930Z,9.49
2018-02-17T16:03:34.330Z,9.56
2018-02-17T16:06:01.773Z,9.60
2018-02-17T16:08:29.177Z,9.60
2018-02-17T16:10:56.589Z,9.62
2018-02-17T16:13:24.015Z,9.63
2018-02-17T16:15:51.395Z,9.64
2018-02-17T16:18:19.655Z,9.64
2018-02-17T16:20:47.038Z,9.63
2018-02-17T16:23:14.430Z,9.62
2018-02-17T16:25:41.818Z,9.60
2018-02-17T16:28:09.210Z,9.54
2018-02-17T16:30:36.610Z,9.47
2018-02-17T16:33:04.072Z,9.41
2018-02-17T16:35:31.530Z,9.38
2018-02-17T16:37:58.920Z,9.33
2018-02-17T16:40:26.318Z,9.33
2018-02-17T16:42:53.715Z,9.26
2018-02-17T16:45:21.150Z,9.19
2018-02-17T16:47:48.539Z,9.15
2018-02-17T16:50:15.943Z,9.14
2018-02-17T16:52:43.341Z,9.01
2018-02-17T16:55:10.727Z,8.96
2018-02-17T16:57:38.226Z,8.96
2018-02-17T17:00:05.623Z,8.89
2018-02-17T17:02:33.100Z,8.87
2018-02-17T17:05:00.430Z,8.76
2018-02-17T17:07:27.830Z,8.68
2018-02-17T17:09:55.371Z,8.68
2018-02-17T17:12:22.736Z,8.62
2018-02-17T17:14:50.143Z,8.51
2018-02-17T17:17:17.523Z,8.19
2018-02-17T17:19:44.906Z,8.24
2018-02-17T17:22:12.311Z,8.28
2018-02-17T17:24:39.710Z,8.34
2018-02-17T17:27:07.314Z,8.31
2018-02-17T17:29:34.759Z,8.33
2018-02-17T17:32:02.183Z,8.34
2018-02-17T17:34:29.684Z,8.31
2018-02-17T17:36:57.067Z,8.28
2018-02-17T17:39:24.450Z,8.26
2018-02-17T17:41:51.855Z,8.26
2018-02-17T17:44:19.243Z,8.17
2018-02-17T17:46:46.632Z,8.17
2018-02-17T17:49:14.094Z,8.18
2018-02-17T17:51:41.492Z,8.18
2018-02-17T17:54:08.894Z,8.16
2018-02-17T17:56:36.294Z,8.10
2018-02-17T17:59:03.730Z,8.08
2018-02-17T18:01:31.119Z,8.00
2018-02-17T18:03:58.518Z,7.98
2018-02-17T18:06:25.903Z,7.95
2018-02-17T18:08:53.291Z,7.94
2018-02-17T18:11:20.686Z,7.87
2018-02-17T18:13:48.078Z,7.87
2018-02-17T18:16:15.473Z,7.83
2018-02-17T18:18:42.871Z,7.76
2018-02-17T18:21:10.328Z,7.74
2018-02-17T18:23:37.779Z,7.67
2018-02-17T18:26:05.235Z,7.56
2018-02-17T18:28:32.690Z,7.25
2018-02-17T18:31:00.080Z,7.15
2018-02-17T18:33:27.466Z,7.24
2018-02-17T18:35:54.923Z,7.31
2018-02-17T18:38:22.318Z,7.20
2018-02-17T18:40:49.709Z,7.26
2018-02-17T18:43:17.127Z,7.27
2018-02-17T18:45:44.580Z,7.03
2018-02-17T18:48:12.033Z,6.88
2018-02-17T18:50:39.429Z,6.87
2018-02-17T18:53:06.815Z,7.00
2018-02-17T18:55:34.203Z,6.89
2018-02-17T18:58:01.596Z,6.92
2018-02-17T19:00:29.007Z,6.96
2018-02-17T19:02:56.401Z,6.93
2018-02-17T19:05:23.783Z,6.92
2018-02-17T19:07:51.187Z,6.89
2018-02-17T19:10:18.703Z,6.86
2018-02-17T19:12:46.106Z,6.82
2018-02-17T19:15:13.503Z,6.80
2018-02-17T19:17:40.898Z,6.74
2018-02-17T19:20:08.291Z,6.66
2018-02-17T19:22:35.722Z,6.64
2018-02-17T19:25:03.079Z,6.65
2018-02-17T19:27:30.479Z,6.64
2018-02-17T19:29:57.981Z,6.63
2018-02-17T19:32:25.431Z,6.64
2018-02-17T19:34:52.891Z,6.62
2018-02-17T19:37:20.343Z,6.61
2018-02-17T19:39:47.799Z,6.39
2018-02-17T19:42:15.255Z,6.39
2018-02-17T19:44:42.668Z,6.38
2018-02-17T19:47:10.059Z,6.33
2018-02-17T19:49:37.479Z,6.21
2018-02-17T19:52:04.867Z,6.15
2018-02-17T19:54:32.263Z,6.11
2018-02-17T19:56:59.675Z,6.10
2018-02-17T19:59:27.080Z,6.05
2018-02-17T20:01:54.499Z,6.01
2018-02-17T20:04:21.895Z,5.87
2018-02-17T20:06:49.279Z,5.82
2018-02-17T20:09:16.762Z,5.75
2018-02-17T20:11:44.154Z,5.72
2018-02-17T20:14:11.566Z,5.75
2018-02-17T20:16:38.959Z,5.80
2018-02-17T20:19:06.384Z,5.75
2018-02-17T20:21:33.771Z,5.78
2018-02-17T20:24:01.195Z,5.63
2018-02-17T20:26:28.593Z,5.57
2018-02-17T20:28:56.002Z,5.42
2018-02-17T20:31:23.394Z,5.29
2018-02-17T20:33:50.795Z,5.20
2018-02-17T20:36:18.183Z,5.24
2018-02-17T20:38:45.583Z,5.26
2018-02-17T20:41:12.976Z,5.16
2018-02-17T20:43:40.435Z,5.05
2018-02-17T20:46:07.832Z,5.10
2018-02-17T20:48:35.256Z,5.00
2018-02-17T20:51:02.704Z,4.93
2018-02-17T20:53:30.178Z,4.98
2018-02-17T20:55:57.546Z,5.03
2018-02-17T20:58:25.495Z,5.07
2018-02-17T21:00:52.904Z,5.11
2018-02-17T21:03:20.318Z,5.13
2018-02-17T21:05:47.711Z,5.19
2018-02-17T21:08:15.610Z,5.23
2018-02-17T21:10:42.998Z,5.27
2018-02-17T21:13:10.415Z,5.20
2018-02-17T21:15:37.808Z,5.10
2018-02-17T21:18:05.227Z,5.02
2018-02-17T21:20:32.639Z,5.02
2018-02-17T21:23:00.031Z,5.00
2018-02-17T21:25:27.435Z,4.95
2018-02-17T21:27:54.827Z,5.00
2018-02-17T21:30:22.308Z,4.98
2018-02-17T21:32:49.702Z,5.00
2018-02-17T21:35:17.168Z,5.00
2018-02-17T21:37:44.507Z,5.06
2018-02-17T21:40:11.906Z,4.95
2018-02-17T21:42:39.296Z,4.85
2018-02-17T21:45:06.690Z,4.85
2018-02-17T21:47:34.083Z,4.92
2018-02-17T21:50:01.553Z,4.73
2018-02-17T21:52:28.938Z,4.66
2018-02-17T21:54:56.338Z,4.63
2018-02-17T21:57:23.811Z,4.66
2018-02-17T21:59:51.215Z,4.65
2018-02-17T22:02:18.614Z,4.68
2018-02-17T22:04:46.014Z,4.75
2018-02-17T22:07:13.407Z,4.74
2018-02-17T22:09:40.891Z,4.71
2018-02-17T22:12:08.283Z,4.78
2018-02-17T22:14:35.703Z,4.83
2018-02-17T22:17:03.095Z,4.86
2018-02-17T22:19:30.500Z,4.85
2018-02-17T22:21:57.986Z,4.87
2018-02-17T22:24:25.387Z,4.91
2018-02-17T22:26:52.831Z,4.85
2018-02-17T22:29:20.227Z,4.73
2018-02-17T22:31:47.615Z,4.51
2018-02-17T22:34:15.016Z,4.64
2018-02-17T22:36:42.402Z,4.70
2018-02-17T22:39:09.794Z,4.71
2018-02-17T22:41:37.207Z,4.64
2018-02-17T22:44:04.598Z,4.66
2018-02-17T22:46:32.059Z,4.69
2018-02-17T22:48:59.391Z,4.65
2018-02-17T22:51:26.866Z,4.69
2018-02-17T22:53:54.270Z,4.72
2018-02-17T22:56:21.682Z,4.71
2018-02-17T22:58:49.084Z,4.64
2018-02-17T23:01:16.495Z,4.70
2018-02-17T23:03:43.923Z,4.57
2018-02-17T23:06:11.406Z,4.51
2018-02-17T23:08:38.799Z,4.45
2018-02-17T23:11:06.245Z,4.44
2018-02-17T23:13:33.598Z,4.48
2018-02-17T23:16:01.002Z,4.44
2018-02-17T23:18:28.383Z,4.44
2018-02-17T23:20:55.796Z,4.42
2018-02-17T23:23:23.211Z,4.33
2018-02-17T23:25:50.616Z,4.37
2018-02-17T23:28:18.015Z,4.36
2018-02-17T23:30:45.410Z,4.28
2018-02-17T23:33:12.791Z,4.30
2018-02-17T23:35:40.183Z,3.92
2018-02-17T23:38:07.570Z,4.04
2018-02-17T23:40:34.970Z,4.16
2018-02-17T23:43:02.435Z,4.13
2018-02-17T23:45:30.048Z,4.15
2018-02-17T23:47:57.621Z,4.20
2018-02-17T23:50:25.123Z,4.16
2018-02-17T23:52:52.694Z,4.04
2018-02-17T23:55:20.238Z,4.08
2018-02-17T23:57:47.640Z,4.09
